sensor_id;sensor_type;location;lat;lon;timestamp;P1;durP1;ratioP1;P2;durP2;ratioP2
55316;SDS011;41178;48.956;8.130;2023-04-21T00:02:22;16.07;;;13.03;;
55316;SDS011;41178;48.956;8.130;2023-04-21T00:07:24;16.53;;;14.63;;
55316;SDS011;41178;48.956;8.130;2023-04-21T00:12:25;17.43;;;15.63;;
55316;SDS011;41178;48.956;8.130;2023-04-21T00:17:27;17.70;;;15.83;;
55316;SDS011;41178;48.956;8.130;2023-04-21T00:22:29;17.77;;;14.83;;
55316;SDS011;41178;48.956;8.130;2023-04-21T00:27:31;16.17;;;13.60;;
55316;SDS011;41178;48.956;8.130;2023-04-21T00:32:32;16.77;;;13.93;;
55316;SDS011;41178;48.956;8.130;2023-04-21T00:37:34;15.60;;;13.60;;
55316;SDS011;41178;48.956;8.130;2023-04-21T00:42:36;14.73;;;13.13;;
55316;SDS011;41178;48.956;8.130;2023-04-21T00:47:38;15.53;;;13.80;;
55316;SDS011;41178;48.956;8.130;2023-04-21T00:52:40;16.60;;;14.77;;
55316;SDS011;41178;48.956;8.130;2023-04-21T00:57:44;16.50;;;14.80;;
55316;SDS011;41178;48.956;8.130;2023-04-21T01:02:45;17.03;;;14.67;;
55316;SDS011;41178;48.956;8.130;2023-04-21T01:07:48;16.53;;;13.63;;
55316;SDS011;41178;48.956;8.130;2023-04-21T01:12:50;17.00;;;14.67;;
55316;SDS011;41178;48.956;8.130;2023-04-21T01:17:52;17.63;;;14.57;;
55316;SDS011;41178;48.956;8.130;2023-04-21T01:22:54;18.53;;;16.07;;
55316;SDS011;41178;48.956;8.130;2023-04-21T01:27:56;19.00;;;14.93;;
55316;SDS011;41178;48.956;8.130;2023-04-21T01:32:58;18.33;;;16.33;;
55316;SDS011;41178;48.956;8.130;2023-04-21T01:38:01;21.87;;;16.90;;
55316;SDS011;41178;48.956;8.130;2023-04-21T01:43:02;19.03;;;16.73;;
55316;SDS011;41178;48.956;8.130;2023-04-21T01:48:05;17.17;;;15.03;;
55316;SDS011;41178;48.956;8.130;2023-04-21T01:53:07;18.73;;;16.23;;
55316;SDS011;41178;48.956;8.130;2023-04-21T01:58:08;17.87;;;15.53;;
55316;SDS011;41178;48.956;8.130;2023-04-21T02:03:10;20.77;;;15.77;;
55316;SDS011;41178;48.956;8.130;2023-04-21T02:08:12;16.37;;;14.57;;
55316;SDS011;41178;48.956;8.130;2023-04-21T02:13:14;19.07;;;17.00;;
55316;SDS011;41178;48.956;8.130;2023-04-21T02:18:15;20.47;;;17.57;;
55316;SDS011;41178;48.956;8.130;2023-04-21T02:23:17;23.63;;;18.57;;
55316;SDS011;41178;48.956;8.130;2023-04-21T02:28:19;22.67;;;19.20;;
55316;SDS011;41178;48.956;8.130;2023-04-21T02:33:20;23.07;;;18.33;;
55316;SDS011;41178;48.956;8.130;2023-04-21T02:38:22;23.13;;;19.10;;
55316;SDS011;41178;48.956;8.130;2023-04-21T02:43:24;23.43;;;18.70;;
55316;SDS011;41178;48.956;8.130;2023-04-21T02:48:27;20.27;;;17.93;;
55316;SDS011;41178;48.956;8.130;2023-04-21T02:53:29;21.50;;;18.80;;
55316;SDS011;41178;48.956;8.130;2023-04-21T02:58:30;21.77;;;17.40;;
55316;SDS011;41178;48.956;8.130;2023-04-21T03:03:32;21.43;;;17.37;;
55316;SDS011;41178;48.956;8.130;2023-04-21T03:08:34;21.83;;;18.73;;
55316;SDS011;41178;48.956;8.130;2023-04-21T03:13:36;22.10;;;19.27;;
55316;SDS011;41178;48.956;8.130;2023-04-21T03:18:37;22.50;;;17.77;;
55316;SDS011;41178;48.956;8.130;2023-04-21T03:23:39;24.37;;;17.93;;
55316;SDS011;41178;48.956;8.130;2023-04-21T03:28:41;97.77;;;19.77;;
55316;SDS011;41178;48.956;8.130;2023-04-21T03:33:43;128.90;;;22.40;;
55316;SDS011;41178;48.956;8.130;2023-04-21T03:38:44;101.63;;;21.10;;
55316;SDS011;41178;48.956;8.130;2023-04-21T03:43:48;324.03;;;29.93;;
55316;SDS011;41178;48.956;8.130;2023-04-21T03:48:51;153.33;;;25.50;;
55316;SDS011;41178;48.956;8.130;2023-04-21T03:53:53;189.07;;;25.17;;
55316;SDS011;41178;48.956;8.130;2023-04-21T03:58:54;89.83;;;18.97;;
55316;SDS011;41178;48.956;8.130;2023-04-21T04:03:56;107.20;;;20.87;;
55316;SDS011;41178;48.956;8.130;2023-04-21T04:08:58;135.80;;;20.37;;
55316;SDS011;41178;48.956;8.130;2023-04-21T04:14:03;108.93;;;20.43;;
55316;SDS011;41178;48.956;8.130;2023-04-21T04:19:04;55.47;;;20.27;;
55316;SDS011;41178;48.956;8.130;2023-04-21T04:24:06;187.07;;;24.80;;
55316;SDS011;41178;48.956;8.130;2023-04-21T04:29:09;116.10;;;22.80;;
55316;SDS011;41178;48.956;8.130;2023-04-21T04:34:11;43.33;;;18.93;;
55316;SDS011;41178;48.956;8.130;2023-04-21T04:39:14;102.40;;;22.10;;
55316;SDS011;41178;48.956;8.130;2023-04-21T04:44:16;63.17;;;20.53;;
55316;SDS011;41178;48.956;8.130;2023-04-21T04:49:19;45.87;;;20.20;;
55316;SDS011;41178;48.956;8.130;2023-04-21T04:54:24;43.40;;;18.37;;
55316;SDS011;41178;48.956;8.130;2023-04-21T04:59:26;43.53;;;18.20;;
55316;SDS011;41178;48.956;8.130;2023-04-21T05:04:30;88.83;;;19.27;;
55316;SDS011;41178;48.956;8.130;2023-04-21T05:09:32;44.30;;;17.87;;
55316;SDS011;41178;48.956;8.130;2023-04-21T05:14:34;37.80;;;17.47;;
55316;SDS011;41178;48.956;8.130;2023-04-21T05:19:36;58.07;;;18.90;;
55316;SDS011;41178;48.956;8.130;2023-04-21T05:24:39;77.53;;;19.30;;
55316;SDS011;41178;48.956;8.130;2023-04-21T05:29:41;76.17;;;20.37;;
55316;SDS011;41178;48.956;8.130;2023-04-21T05:34:43;73.93;;;19.27;;
55316;SDS011;41178;48.956;8.130;2023-04-21T05:39:45;45.90;;;18.53;;
55316;SDS011;41178;48.956;8.130;2023-04-21T05:44:47;71.43;;;20.10;;
55316;SDS011;41178;48.956;8.130;2023-04-21T05:49:52;130.83;;;22.77;;
55316;SDS011;41178;48.956;8.130;2023-04-21T05:54:54;73.10;;;20.70;;
55316;SDS011;41178;48.956;8.130;2023-04-21T05:59:56;105.73;;;22.03;;
55316;SDS011;41178;48.956;8.130;2023-04-21T06:04:58;118.50;;;22.40;;
55316;SDS011;41178;48.956;8.130;2023-04-21T06:10:00;115.43;;;23.90;;
55316;SDS011;41178;48.956;8.130;2023-04-21T06:15:02;135.33;;;24.73;;
55316;SDS011;41178;48.956;8.130;2023-04-21T06:20:04;87.20;;;21.70;;
55316;SDS011;41178;48.956;8.130;2023-04-21T06:25:06;133.70;;;23.60;;
55316;SDS011;41178;48.956;8.130;2023-04-21T06:30:08;87.80;;;24.20;;
55316;SDS011;41178;48.956;8.130;2023-04-21T06:35:10;46.67;;;21.77;;
55316;SDS011;41178;48.956;8.130;2023-04-21T06:40:12;79.67;;;23.43;;
55316;SDS011;41178;48.956;8.130;2023-04-21T06:45:16;34.67;;;19.83;;
55316;SDS011;41178;48.956;8.130;2023-04-21T06:50:18;29.97;;;20.97;;
55316;SDS011;41178;48.956;8.130;2023-04-21T06:55:20;29.47;;;21.83;;
55316;SDS011;41178;48.956;8.130;2023-04-21T07:00:21;27.97;;;21.17;;
55316;SDS011;41178;48.956;8.130;2023-04-21T07:05:23;27.33;;;20.57;;
55316;SDS011;41178;48.956;8.130;2023-04-21T07:10:25;24.83;;;19.87;;
55316;SDS011;41178;48.956;8.130;2023-04-21T07:15:28;25.50;;;19.50;;
55316;SDS011;41178;48.956;8.130;2023-04-21T07:20:29;25.53;;;20.43;;
55316;SDS011;41178;48.956;8.130;2023-04-21T07:25:31;25.90;;;19.53;;
55316;SDS011;41178;48.956;8.130;2023-04-21T07:30:33;24.30;;;20.47;;
55316;SDS011;41178;48.956;8.130;2023-04-21T07:35:35;28.90;;;22.33;;
55316;SDS011;41178;48.956;8.130;2023-04-21T07:40:37;25.83;;;20.37;;
55316;SDS011;41178;48.956;8.130;2023-04-21T07:45:38;23.87;;;17.97;;
55316;SDS011;41178;48.956;8.130;2023-04-21T07:50:40;21.97;;;18.17;;
55316;SDS011;41178;48.956;8.130;2023-04-21T07:55:42;21.73;;;17.00;;
55316;SDS011;41178;48.956;8.130;2023-04-21T08:00:44;19.00;;;15.63;;
55316;SDS011;41178;48.956;8.130;2023-04-21T08:05:46;19.07;;;15.73;;
55316;SDS011;41178;48.956;8.130;2023-04-21T08:10:48;18.17;;;15.13;;
55316;SDS011;41178;48.956;8.130;2023-04-21T08:15:53;18.87;;;15.30;;
55316;SDS011;41178;48.956;8.130;2023-04-21T08:20:55;28.37;;;24.23;;
55316;SDS011;41178;48.956;8.130;2023-04-21T08:25:58;18.13;;;16.23;;
55316;SDS011;41178;48.956;8.130;2023-04-21T08:31:01;19.73;;;16.07;;
55316;SDS011;41178;48.956;8.130;2023-04-21T08:36:03;18.77;;;16.17;;
55316;SDS011;41178;48.956;8.130;2023-04-21T08:41:18;17.97;;;15.97;;
55316;SDS011;41178;48.956;8.130;2023-04-21T08:46:20;17.60;;;15.70;;
55316;SDS011;41178;48.956;8.130;2023-04-21T08:51:23;16.63;;;14.63;;
55316;SDS011;41178;48.956;8.130;2023-04-21T08:56:27;15.23;;;13.53;;
55316;SDS011;41178;48.956;8.130;2023-04-21T09:01:29;14.60;;;13.07;;
55316;SDS011;41178;48.956;8.130;2023-04-21T09:06:40;13.83;;;12.37;;
55316;SDS011;41178;48.956;8.130;2023-04-21T09:11:53;13.07;;;11.67;;
55316;SDS011;41178;48.956;8.130;2023-04-21T09:17:02;8.77;;;6.80;;
55316;SDS011;41178;48.956;8.130;2023-04-21T09:22:05;7.80;;;7.00;;
55316;SDS011;41178;48.956;8.130;2023-04-21T09:27:08;7.77;;;6.97;;
55316;SDS011;41178;48.956;8.130;2023-04-21T09:32:10;6.10;;;5.50;;
55316;SDS011;41178;48.956;8.130;2023-04-21T09:37:12;8.63;;;4.80;;
55316;SDS011;41178;48.956;8.130;2023-04-21T09:42:18;5.10;;;4.03;;
55316;SDS011;41178;48.956;8.130;2023-04-21T09:47:20;4.27;;;3.87;;
55316;SDS011;41178;48.956;8.130;2023-04-21T09:52:22;4.17;;;3.80;;
55316;SDS011;41178;48.956;8.130;2023-04-21T09:57:28;4.77;;;4.27;;
55316;SDS011;41178;48.956;8.130;2023-04-21T10:02:33;5.07;;;4.10;;
55316;SDS011;41178;48.956;8.130;2023-04-21T10:07:37;6.07;;;4.80;;
55316;SDS011;41178;48.956;8.130;2023-04-21T10:12:39;4.87;;;4.37;;
55316;SDS011;41178;48.956;8.130;2023-04-21T10:17:41;4.47;;;4.00;;
55316;SDS011;41178;48.956;8.130;2023-04-21T10:22:44;4.10;;;3.60;;
55316;SDS011;41178;48.956;8.130;2023-04-21T10:27:46;5.20;;;3.57;;
55316;SDS011;41178;48.956;8.130;2023-04-21T10:32:48;4.67;;;4.10;;
55316;SDS011;41178;48.956;8.130;2023-04-21T10:38:05;5.10;;;4.60;;
55316;SDS011;41178;48.956;8.130;2023-04-21T10:43:22;4.60;;;4.20;;
55316;SDS011;41178;48.956;8.130;2023-04-21T10:48:53;5.20;;;4.67;;
55316;SDS011;41178;48.956;8.130;2023-04-21T10:53:55;4.83;;;4.40;;
55316;SDS011;41178;48.956;8.130;2023-04-21T10:58:56;5.13;;;4.50;;
55316;SDS011;41178;48.956;8.130;2023-04-21T11:06:31;5.30;;;4.80;;
55316;SDS011;41178;48.956;8.130;2023-04-21T11:11:32;5.10;;;4.60;;
55316;SDS011;41178;48.956;8.130;2023-04-21T11:16:36;4.83;;;4.33;;
55316;SDS011;41178;48.956;8.130;2023-04-21T11:21:42;4.77;;;4.00;;
55316;SDS011;41178;48.956;8.130;2023-04-21T11:26:49;4.03;;;3.60;;
55316;SDS011;41178;48.956;8.130;2023-04-21T11:31:52;3.30;;;3.00;;
55316;SDS011;41178;48.956;8.130;2023-04-21T11:36:54;2.60;;;2.40;;
55316;SDS011;41178;48.956;8.130;2023-04-21T11:41:56;4.30;;;3.43;;
55316;SDS011;41178;48.956;8.130;2023-04-21T11:46:58;4.20;;;3.17;;
55316;SDS011;41178;48.956;8.130;2023-04-21T11:52:00;3.40;;;3.10;;
55316;SDS011;41178;48.956;8.130;2023-04-21T11:57:01;3.63;;;3.00;;
55316;SDS011;41178;48.956;8.130;2023-04-21T12:02:03;4.27;;;3.30;;
55316;SDS011;41178;48.956;8.130;2023-04-21T12:07:05;4.30;;;3.33;;
55316;SDS011;41178;48.956;8.130;2023-04-21T12:12:06;4.07;;;3.33;;
55316;SDS011;41178;48.956;8.130;2023-04-21T12:17:10;3.33;;;3.03;;
55316;SDS011;41178;48.956;8.130;2023-04-21T12:22:12;4.33;;;3.93;;
55316;SDS011;41178;48.956;8.130;2023-04-21T12:27:15;5.57;;;3.27;;
55316;SDS011;41178;48.956;8.130;2023-04-21T12:32:19;4.67;;;3.87;;
55316;SDS011;41178;48.956;8.130;2023-04-21T12:37:21;5.17;;;3.27;;
55316;SDS011;41178;48.956;8.130;2023-04-21T12:42:23;8.10;;;4.10;;
55316;SDS011;41178;48.956;8.130;2023-04-21T12:47:25;3.90;;;3.50;;
55316;SDS011;41178;48.956;8.130;2023-04-21T12:52:26;3.93;;;3.53;;
55316;SDS011;41178;48.956;8.130;2023-04-21T12:57:28;4.20;;;3.63;;
55316;SDS011;41178;48.956;8.130;2023-04-21T13:02:32;4.17;;;3.77;;
55316;SDS011;41178;48.956;8.130;2023-04-21T13:07:37;4.47;;;4.07;;
55316;SDS011;41178;48.956;8.130;2023-04-21T13:19:06;5.73;;;4.93;;
55316;SDS011;41178;48.956;8.130;2023-04-21T13:24:07;6.27;;;5.37;;
55316;SDS011;41178;48.956;8.130;2023-04-21T13:29:13;6.13;;;4.90;;
55316;SDS011;41178;48.956;8.130;2023-04-21T13:34:15;5.63;;;5.03;;
55316;SDS011;41178;48.956;8.130;2023-04-21T13:39:17;6.13;;;5.40;;
55316;SDS011;41178;48.956;8.130;2023-04-21T13:44:19;5.73;;;5.13;;
55316;SDS011;41178;48.956;8.130;2023-04-21T13:49:24;6.27;;;5.67;;
55316;SDS011;41178;48.956;8.130;2023-04-21T13:54:26;7.20;;;6.50;;
55316;SDS011;41178;48.956;8.130;2023-04-21T13:59:28;7.13;;;6.23;;
55316;SDS011;41178;48.956;8.130;2023-04-21T14:04:30;6.67;;;5.93;;
55316;SDS011;41178;48.956;8.130;2023-04-21T14:09:32;7.23;;;5.80;;
55316;SDS011;41178;48.956;8.130;2023-04-21T14:14:35;7.23;;;6.53;;
55316;SDS011;41178;48.956;8.130;2023-04-21T14:19:39;7.63;;;6.00;;
55316;SDS011;41178;48.956;8.130;2023-04-21T14:24:41;8.13;;;6.73;;
55316;SDS011;41178;48.956;8.130;2023-04-21T14:29:42;9.00;;;6.47;;
55316;SDS011;41178;48.956;8.130;2023-04-21T14:34:44;6.50;;;5.63;;
55316;SDS011;41178;48.956;8.130;2023-04-21T14:39:46;8.27;;;6.00;;
55316;SDS011;41178;48.956;8.130;2023-04-21T14:44:48;5.20;;;4.70;;
55316;SDS011;41178;48.956;8.130;2023-04-21T14:49:50;6.93;;;6.20;;
55316;SDS011;41178;48.956;8.130;2023-04-21T14:54:55;7.77;;;5.60;;
55316;SDS011;41178;48.956;8.130;2023-04-21T14:59:57;5.43;;;4.53;;
55316;SDS011;41178;48.956;8.130;2023-04-21T15:04:59;5.63;;;4.63;;
55316;SDS011;41178;48.956;8.130;2023-04-21T15:10:03;3.27;;;2.90;;
55316;SDS011;41178;48.956;8.130;2023-04-21T15:15:06;2.43;;;1.80;;
55316;SDS011;41178;48.956;8.130;2023-04-21T15:25:46;4.27;;;2.90;;
55316;SDS011;41178;48.956;8.130;2023-04-21T15:30:49;3.90;;;2.37;;
55316;SDS011;41178;48.956;8.130;2023-04-21T15:35:54;2.23;;;2.00;;
55316;SDS011;41178;48.956;8.130;2023-04-21T15:40:56;2.27;;;2.07;;
55316;SDS011;41178;48.956;8.130;2023-04-21T15:46:01;2.13;;;1.90;;
55316;SDS011;41178;48.956;8.130;2023-04-21T15:51:04;2.07;;;1.90;;
55316;SDS011;41178;48.956;8.130;2023-04-21T15:56:07;2.37;;;1.73;;
55316;SDS011;41178;48.956;8.130;2023-04-21T16:01:19;3.87;;;2.40;;
55316;SDS011;41178;48.956;8.130;2023-04-21T16:06:22;2.37;;;2.17;;
55316;SDS011;41178;48.956;8.130;2023-04-21T16:11:25;4.80;;;2.47;;
55316;SDS011;41178;48.956;8.130;2023-04-21T16:16:29;2.90;;;2.30;;
55316;SDS011;41178;48.956;8.130;2023-04-21T16:21:31;3.97;;;2.10;;
55316;SDS011;41178;48.956;8.130;2023-04-21T16:26:36;2.80;;;2.20;;
55316;SDS011;41178;48.956;8.130;2023-04-21T16:31:38;5.17;;;2.40;;
55316;SDS011;41178;48.956;8.130;2023-04-21T16:36:40;3.57;;;2.17;;
55316;SDS011;41178;48.956;8.130;2023-04-21T16:41:55;2.53;;;2.17;;
55316;SDS011;41178;48.956;8.130;2023-04-21T16:46:57;6.10;;;2.10;;
55316;SDS011;41178;48.956;8.130;2023-04-21T16:51:59;3.20;;;2.33;;
55316;SDS011;41178;48.956;8.130;2023-04-21T16:57:01;3.73;;;2.27;;
55316;SDS011;41178;48.956;8.130;2023-04-21T17:02:07;2.40;;;2.20;;
55316;SDS011;41178;48.956;8.130;2023-04-21T17:07:12;3.17;;;2.67;;
55316;SDS011;41178;48.956;8.130;2023-04-21T17:12:19;4.00;;;2.30;;
55316;SDS011;41178;48.956;8.130;2023-04-21T17:17:40;3.53;;;2.20;;
55316;SDS011;41178;48.956;8.130;2023-04-21T17:22:45;2.87;;;2.30;;
55316;SDS011;41178;48.956;8.130;2023-04-21T17:27:47;2.67;;;2.43;;
55316;SDS011;41178;48.956;8.130;2023-04-21T17:32:49;3.70;;;3.30;;
55316;SDS011;41178;48.956;8.130;2023-04-21T17:38:08;3.07;;;2.83;;
55316;SDS011;41178;48.956;8.130;2023-04-21T17:43:11;2.87;;;2.63;;
55316;SDS011;41178;48.956;8.130;2023-04-21T17:48:28;3.00;;;2.70;;
55316;SDS011;41178;48.956;8.130;2023-04-21T17:53:48;4.40;;;3.47;;
55316;SDS011;41178;48.956;8.130;2023-04-21T17:58:52;3.30;;;3.07;;
55316;SDS011;41178;48.956;8.130;2023-04-21T18:04:05;3.57;;;3.27;;
55316;SDS011;41178;48.956;8.130;2023-04-21T18:09:39;3.73;;;3.40;;
55316;SDS011;41178;48.956;8.130;2023-04-21T18:15:13;5.00;;;3.87;;
55316;SDS011;41178;48.956;8.130;2023-04-21T18:20:41;5.70;;;4.47;;
55316;SDS011;41178;48.956;8.130;2023-04-21T18:59:53;5.93;;;5.33;;
55316;SDS011;41178;48.956;8.130;2023-04-21T19:04:55;5.73;;;5.13;;
55316;SDS011;41178;48.956;8.130;2023-04-21T19:09:56;5.90;;;5.30;;
55316;SDS011;41178;48.956;8.130;2023-04-21T19:14:58;6.37;;;4.93;;
55316;SDS011;41178;48.956;8.130;2023-04-21T19:20:00;6.77;;;5.87;;
55316;SDS011;41178;48.956;8.130;2023-04-21T19:25:02;5.97;;;5.10;;
55316;SDS011;41178;48.956;8.130;2023-04-21T19:30:03;5.73;;;4.90;;
55316;SDS011;41178;48.956;8.130;2023-04-21T19:35:06;4.97;;;4.50;;
55316;SDS011;41178;48.956;8.130;2023-04-21T19:40:08;6.67;;;5.13;;
55316;SDS011;41178;48.956;8.130;2023-04-21T19:45:10;4.73;;;4.00;;
55316;SDS011;41178;48.956;8.130;2023-04-21T19:50:12;4.40;;;4.00;;
55316;SDS011;41178;48.956;8.130;2023-04-21T19:55:13;4.37;;;3.93;;
55316;SDS011;41178;48.956;8.130;2023-04-21T20:00:16;4.70;;;4.20;;
55316;SDS011;41178;48.956;8.130;2023-04-21T20:05:18;5.53;;;4.47;;
55316;SDS011;41178;48.956;8.130;2023-04-21T20:10:20;4.07;;;3.67;;
55316;SDS011;41178;48.956;8.130;2023-04-21T20:15:22;3.90;;;3.53;;
55316;SDS011;41178;48.956;8.130;2023-04-21T20:20:23;5.23;;;4.10;;
55316;SDS011;41178;48.956;8.130;2023-04-21T20:25:25;5.33;;;4.83;;
55316;SDS011;41178;48.956;8.130;2023-04-21T20:30:28;5.50;;;4.77;;
55316;SDS011;41178;48.956;8.130;2023-04-21T20:35:29;5.20;;;4.60;;
55316;SDS011;41178;48.956;8.130;2023-04-21T20:40:33;9.47;;;5.93;;
55316;SDS011;41178;48.956;8.130;2023-04-21T20:45:36;5.70;;;4.80;;
55316;SDS011;41178;48.956;8.130;2023-04-21T20:50:38;6.40;;;5.10;;
55316;SDS011;41178;48.956;8.130;2023-04-21T20:55:41;6.37;;;4.40;;
55316;SDS011;41178;48.956;8.130;2023-04-21T21:00:43;4.30;;;3.90;;
55316;SDS011;41178;48.956;8.130;2023-04-21T21:05:44;4.47;;;4.07;;
55316;SDS011;41178;48.956;8.130;2023-04-21T21:10:46;6.10;;;4.20;;
55316;SDS011;41178;48.956;8.130;2023-04-21T21:15:47;4.33;;;3.93;;
55316;SDS011;41178;48.956;8.130;2023-04-21T21:20:49;5.07;;;3.90;;
55316;SDS011;41178;48.956;8.130;2023-04-21T21:25:51;4.57;;;4.17;;
55316;SDS011;41178;48.956;8.130;2023-04-21T21:30:52;5.17;;;4.67;;
55316;SDS011;41178;48.956;8.130;2023-04-21T21:35:54;5.17;;;4.53;;
55316;SDS011;41178;48.956;8.130;2023-04-21T21:40:55;5.63;;;5.07;;
55316;SDS011;41178;48.956;8.130;2023-04-21T21:45:57;7.03;;;5.63;;
55316;SDS011;41178;48.956;8.130;2023-04-21T21:50:59;8.97;;;7.43;;
55316;SDS011;41178;48.956;8.130;2023-04-21T21:56:00;9.17;;;7.50;;
55316;SDS011;41178;48.956;8.130;2023-04-21T22:01:02;8.47;;;7.30;;
55316;SDS011;41178;48.956;8.130;2023-04-21T22:06:04;9.30;;;6.60;;
55316;SDS011;41178;48.956;8.130;2023-04-21T22:11:06;8.00;;;6.53;;
55316;SDS011;41178;48.956;8.130;2023-04-21T22:16:08;6.40;;;5.80;;
55316;SDS011;41178;48.956;8.130;2023-04-21T22:21:10;6.83;;;5.27;;
55316;SDS011;41178;48.956;8.130;2023-04-21T22:26:12;6.57;;;5.40;;
55316;SDS011;41178;48.956;8.130;2023-04-21T22:31:13;7.23;;;5.83;;
55316;SDS011;41178;48.956;8.130;2023-04-21T22:36:15;6.23;;;5.63;;
55316;SDS011;41178;48.956;8.130;2023-04-21T22:41:16;5.87;;;5.27;;
55316;SDS011;41178;48.956;8.130;2023-04-21T22:46:18;6.30;;;5.63;;
55316;SDS011;41178;48.956;8.130;2023-04-21T22:51:20;6.00;;;5.40;;
55316;SDS011;41178;48.956;8.130;2023-04-21T22:56:21;6.40;;;5.10;;
55316;SDS011;41178;48.956;8.130;2023-04-21T23:01:23;7.57;;;5.77;;
55316;SDS011;41178;48.956;8.130;2023-04-21T23:06:25;6.03;;;5.20;;
55316;SDS011;41178;48.956;8.130;2023-04-21T23:11:26;7.40;;;5.60;;
55316;SDS011;41178;48.956;8.130;2023-04-21T23:16:28;5.50;;;5.00;;
55316;SDS011;41178;48.956;8.130;2023-04-21T23:21:30;5.47;;;4.97;;
55316;SDS011;41178;48.956;8.130;2023-04-21T23:26:31;5.87;;;5.27;;
55316;SDS011;41178;48.956;8.130;2023-04-21T23:31:33;6.27;;;5.67;;
55316;SDS011;41178;48.956;8.130;2023-04-21T23:36:35;7.27;;;6.13;;
55316;SDS011;41178;48.956;8.130;2023-04-21T23:41:36;7.43;;;6.67;;
55316;SDS011;41178;48.956;8.130;2023-04-21T23:46:38;6.93;;;6.23;;
55316;SDS011;41178;48.956;8.130;2023-04-21T23:51:40;6.93;;;6.23;;
55316;SDS011;41178;48.956;8.130;2023-04-21T23:56:41;9.50;;;7.60;;
